Meeteetse, WY (82433)

1:21 PM MST on January 23, 2018 (GMT -0700)
MD0465 | | Change Station
Active Advisory: Special Statement

Elev 5746 ft 44.16 °N, 108.87 °W | Updated 14 minutes ago

Clear
Clear
31.0 °F
Feels Like 31 °F
N
3.0
Wind Variable Wind from SSE
Gusts 9.0 mph

Today
High -- | Low -- °F
--% Chance of Precip.
Yesterday
High -- | Low -- °F
Precip. -- in
Pressure 30.25 in
Visibility 10.0 miles
Clouds Clear
Windchill 31 °F
Dew Point 10 °F
Humidity 40%
Rainfall 0.00 in
Snow Depth Not available.
7:41 AM 5:13 PM
Waxing Crescent, 39% visible
METAR KCOD 231956Z AUTO 25016G23KT 10SM CLR 02/M14 A3016 RMK AO2 SLP243 T00171139 FZRANO
Pressure 30.25 in
Visibility 10.0 miles
Clouds Clear
Windchill 31 °F
Dew Point 10 °F
Humidity 40%
Rainfall 0.00 in
Snow Depth Not available.
7:41 AM 5:13 PM
Waxing Crescent, 39% visible
METAR KCOD 231956Z AUTO 25016G23KT 10SM CLR 02/M14 A3016 RMK AO2 SLP243 T00171139 FZRANO

Get Your Daily Forecast Email!

Thanks for signing up!

Be on the lookout for a verification email in your inbox.

You'll start receiving severe weather alerts in your inbox..

×

10-Day Weather Forecast

Almanac

Astronomy

Jan. 23, 2018 Rise Set
Actual Time
Civil Twilight
Nautical Twilight
Astronomical Twilight
Moon
Length of Visible Light
Length of Day
Tomorrow will be .
, % of the Moon is Illuminated

Today's Extremes

State Highs State Lows

Community

WunderPhotos

Category 6

Welcome to Category 6. This is the collective home for Weather Underground's featured writeups by Dr. Jeff Masters (right), Bob Henson (left), Chris Burt, and other regular contributors.

Nearby

Air Quality

  Air Quality AQ Index Pollutant
Not available.

Snow Depth

Station Depth Elevation

Earthquake Activity

City Distance Mag. Time & Date
Minimum magnitude displayed is 2.5.

Coastal Water Temperatures

Place Temperature

Stations

Nearby Weather Stations

Station Location Temp. Windchill Dew Point Humidity Wind Precip. Elev Updated Type
                   

Watches & Warnings

Special Statement
Issued: 12:23 PM MST Jan. 23, 2018 – National Weather Service

Windy areas are expected to develop across the Cody foothills
later this evening into Wednesday morning. The most favorable
areas will be along Highway 120 south of Clark and also just south
of Cody. These favored areas could see west winds of 30 to 35 mph
with gusts of 45 to 55 mph. Other areas could see a least a brief
period of 25 to 40 mph winds. Be alert if travelling tonight or
Wednesday morning as strong cross-winds could occur at any time.


Team Riverton